createdAt,value
2019-04-29T00:01:03.286Z,31.80
2019-04-29T00:03:56.968Z,31.80
2019-04-29T00:06:49.737Z,31.80
2019-04-29T00:09:44.138Z,31.80
2019-04-29T00:12:38.349Z,31.80
2019-04-29T00:16:05.162Z,31.80
2019-04-29T00:19:08.815Z,31.80
2019-04-29T00:22:02.624Z,31.80
2019-04-29T00:24:56.709Z,31.80
2019-04-29T00:27:49.850Z,31.80
2019-04-29T00:30:43.018Z,31.80
2019-04-29T00:33:36.431Z,31.80
2019-04-29T00:36:32.304Z,31.90
2019-04-29T00:39:42.341Z,31.80
2019-04-29T00:42:53.709Z,31.80
2019-04-29T00:45:47.060Z,31.80
2019-04-29T00:48:39.852Z,31.80
2019-04-29T00:51:32.400Z,31.80
2019-04-29T00:54:34.823Z,31.80
2019-04-29T00:57:28.608Z,31.80
2019-04-29T01:00:41.871Z,31.80
2019-04-29T01:03:34.481Z,31.80
2019-04-29T01:06:27.740Z,31.80
2019-04-29T01:09:21.814Z,31.80
2019-04-29T01:12:15.429Z,31.80
2019-04-29T01:15:10.231Z,31.80
2019-04-29T01:18:03.675Z,31.80
2019-04-29T01:20:57.676Z,31.80
2019-04-29T01:23:52.541Z,31.80
2019-04-29T01:27:13.988Z,31.80
2019-04-29T01:30:08.251Z,31.80
2019-04-29T01:33:02.899Z,31.80
2019-04-29T01:36:08.744Z,31.80
2019-04-29T01:39:02.850Z,31.80
2019-04-29T01:42:03.259Z,31.80
2019-04-29T01:44:58.358Z,31.80
2019-04-29T01:47:52.249Z,31.80
2019-04-29T01:50:45.270Z,31.80
2019-04-29T01:53:38.521Z,31.80
2019-04-29T01:56:32.674Z,31.80
2019-04-29T01:59:28.514Z,31.80
2019-04-29T02:02:20.948Z,31.80
2019-04-29T02:05:13.767Z,31.80
2019-04-29T02:08:06.300Z,31.80
2019-04-29T02:11:01.844Z,31.80
2019-04-29T02:13:56.299Z,31.90
2019-04-29T02:16:50.555Z,31.90
2019-04-29T02:19:43.113Z,31.80
2019-04-29T02:22:54.287Z,31.90
2019-04-29T02:25:49.118Z,31.80
2019-04-29T02:28:45.034Z,31.90
2019-04-29T02:31:41.094Z,31.90
2019-04-29T02:34:35.084Z,31.90
2019-04-29T02:37:33.563Z,31.80
2019-04-29T02:40:37.105Z,31.90
2019-04-29T02:43:32.281Z,31.90
2019-04-29T02:46:25.407Z,31.90
2019-04-29T02:49:19.158Z,31.90
2019-04-29T02:52:11.484Z,31.90
2019-04-29T02:55:05.742Z,31.90
2019-04-29T02:58:16.523Z,31.90
2019-04-29T03:01:28.918Z,31.90
2019-04-29T03:04:25.265Z,32.00
2019-04-29T03:07:18.663Z,32.00
2019-04-29T03:10:11.131Z,32.00
2019-04-29T03:13:03.357Z,32.00
2019-04-29T03:15:57.133Z,32.00
2019-04-29T03:18:54.122Z,32.00
2019-04-29T03:21:53.742Z,32.00
2019-04-29T03:24:48.628Z,31.90
2019-04-29T03:27:42.013Z,31.90
2019-04-29T03:30:36.596Z,32.00
2019-04-29T03:33:29.687Z,32.00
2019-04-29T03:36:23.740Z,32.00
2019-04-29T03:39:17.943Z,32.00
2019-04-29T03:42:12.090Z,32.00
2019-04-29T03:45:06.966Z,32.00
2019-04-29T03:48:01.553Z,32.00
2019-04-29T03:50:56.030Z,32.00
2019-04-29T03:53:51.882Z,32.00
2019-04-29T03:56:45.548Z,32.00
2019-04-29T03:59:40.568Z,32.10
2019-04-29T04:02:41.469Z,32.10
2019-04-29T04:05:57.035Z,32.10
2019-04-29T04:09:05.334Z,32.10
2019-04-29T04:11:48.290Z,32.10
2019-04-29T04:14:40.476Z,32.10
2019-04-29T04:17:50.174Z,32.10
2019-04-29T04:20:48.190Z,32.10
2019-04-29T04:23:43.212Z,32.10
2019-04-29T04:26:40.289Z,32.10
2019-04-29T04:29:33.613Z,32.10
2019-04-29T04:32:29.050Z,32.10
2019-04-29T04:35:23.249Z,32.10
2019-04-29T04:38:19.648Z,32.10
2019-04-29T04:41:12.920Z,32.10
2019-04-29T04:44:07.900Z,32.20
2019-04-29T04:47:03.272Z,32.20
2019-04-29T04:49:59.526Z,32.20
2019-04-29T04:52:54.409Z,32.20
2019-04-29T04:55:51.207Z,32.10
2019-04-29T04:58:46.321Z,32.20
2019-04-29T05:01:39.248Z,32.20
2019-04-29T05:04:33.555Z,32.10
2019-04-29T05:07:28.655Z,31.90
2019-04-29T05:10:23.297Z,31.90
2019-04-29T05:13:27.951Z,31.90
2019-04-29T05:16:19.466Z,31.90
2019-04-29T05:19:16.358Z,31.90
2019-04-29T05:22:11.827Z,31.90
2019-04-29T05:25:07.642Z,31.90
2019-04-29T05:28:12.522Z,31.90
2019-04-29T05:31:24.246Z,31.90
2019-04-29T05:34:24.813Z,31.90
2019-04-29T05:37:31.438Z,31.90
2019-04-29T05:40:43.674Z,31.90
2019-04-29T05:44:03.357Z,31.90
2019-04-29T05:47:17.853Z,32.00
2019-04-29T05:50:33.043Z,32.00
2019-04-29T05:53:34.901Z,32.00
2019-04-29T05:56:31.441Z,32.00
2019-04-29T05:59:25.592Z,32.00
2019-04-29T06:02:33.164Z,32.00
2019-04-29T06:05:21.198Z,32.00
2019-04-29T06:08:24.416Z,32.00
2019-04-29T06:11:23.710Z,32.00
2019-04-29T06:14:29.907Z,32.00
2019-04-29T06:17:28.241Z,32.00
2019-04-29T06:20:34.758Z,32.10
2019-04-29T06:26:56.594Z,32.10
2019-04-29T06:29:58.380Z,32.10
2019-04-29T06:32:57.343Z,32.10
2019-04-29T06:35:57.090Z,32.10
2019-04-29T06:38:55.853Z,32.10
2019-04-29T06:41:50.223Z,32.10
2019-04-29T06:44:49.107Z,32.10
2019-04-29T06:47:44.145Z,32.10
2019-04-29T06:50:38.468Z,32.10
2019-04-29T06:53:48.085Z,32.10
2019-04-29T06:56:57.789Z,32.10
2019-04-29T06:59:55.830Z,32.10
2019-04-29T07:03:01.182Z,32.10
2019-04-29T07:05:55.870Z,32.10
2019-04-29T07:12:01.616Z,32.20
2019-04-29T07:14:59.029Z,32.30
2019-04-29T07:17:56.917Z,32.30
2019-04-29T07:20:52.050Z,32.40
2019-04-29T07:23:51.855Z,32.40
2019-04-29T07:26:46.303Z,32.40
2019-04-29T07:29:40.588Z,32.40
2019-04-29T07:32:36.083Z,32.40
2019-04-29T07:35:31.580Z,32.40
2019-04-29T07:38:40.514Z,32.40
2019-04-29T07:41:27.093Z,32.40
2019-04-29T07:44:22.792Z,32.40
2019-04-29T07:47:19.139Z,32.50
2019-04-29T07:50:14.359Z,32.50
2019-04-29T07:53:09.930Z,32.50
2019-04-29T07:56:06.297Z,32.50
2019-04-29T07:59:02.659Z,32.40
2019-04-29T08:01:55.553Z,32.40
2019-04-29T08:04:51.261Z,32.50
2019-04-29T08:07:50.400Z,32.50
2019-04-29T08:10:56.138Z,32.50
2019-04-29T08:13:44.228Z,32.50
2019-04-29T08:16:38.540Z,32.50
2019-04-29T08:19:32.860Z,32.50
2019-04-29T08:22:27.763Z,32.60
2019-04-29T08:25:21.653Z,32.00
2019-04-29T08:28:17.746Z,31.50
2019-04-29T08:31:11.605Z,31.10
2019-04-29T08:34:09.555Z,30.90
2019-04-29T08:37:04.106Z,30.70
2019-04-29T08:40:15.163Z,30.70
2019-04-29T08:43:04.661Z,30.80
2019-04-29T08:46:06.980Z,31.00
2019-04-29T08:49:01.224Z,30.80
2019-04-29T08:52:00.008Z,30.90
2019-04-29T08:54:57.478Z,30.90
2019-04-29T08:57:54.952Z,30.80
2019-04-29T09:00:51.425Z,30.80
2019-04-29T09:03:48.762Z,30.70
2019-04-29T09:06:43.430Z,30.70
2019-04-29T09:09:37.308Z,30.60
2019-04-29T09:12:30.273Z,30.50
2019-04-29T09:15:24.908Z,30.70
2019-04-29T09:18:19.924Z,30.80
2019-04-29T09:21:13.414Z,30.70
2019-04-29T09:24:07.409Z,30.60
2019-04-29T09:27:09.691Z,30.60
2019-04-29T09:30:03.170Z,30.50
2019-04-29T09:32:59.766Z,30.50
2019-04-29T09:35:55.934Z,30.60
2019-04-29T09:38:51.055Z,30.80
2019-04-29T09:41:56.795Z,31.00
2019-04-29T09:45:07.678Z,31.10
2019-04-29T09:48:02.049Z,31.30
2019-04-29T09:50:55.408Z,31.40
2019-04-29T09:53:50.714Z,31.50
2019-04-29T09:56:45.210Z,31.60
2019-04-29T09:59:44.720Z,31.60
2019-04-29T10:02:44.181Z,31.60
2019-04-29T10:05:43.930Z,31.70
2019-04-29T10:08:39.195Z,31.80
2019-04-29T10:11:35.376Z,31.80
2019-04-29T10:14:30.003Z,31.80
2019-04-29T10:17:35.599Z,31.80
2019-04-29T10:20:44.969Z,31.80
2019-04-29T10:23:40.824Z,31.90
2019-04-29T10:26:35.307Z,31.90
2019-04-29T10:29:30.681Z,31.90
2019-04-29T10:32:23.461Z,31.90
2019-04-29T10:35:16.015Z,32.00
2019-04-29T10:38:09.659Z,32.00
2019-04-29T10:41:08.820Z,32.00
2019-04-29T10:44:28.443Z,32.00
2019-04-29T10:47:53.561Z,32.10
2019-04-29T10:50:52.061Z,32.10
2019-04-29T10:53:42.662Z,32.10
2019-04-29T10:56:39.455Z,32.10
2019-04-29T10:59:35.978Z,32.10
2019-04-29T11:02:39.660Z,32.10
2019-04-29T11:05:59.849Z,32.10
2019-04-29T11:08:53.976Z,32.10
2019-04-29T11:11:48.091Z,32.10
2019-04-29T11:14:42.653Z,32.10
2019-04-29T11:17:39.579Z,32.20
2019-04-29T11:20:31.926Z,32.30
2019-04-29T11:23:54.827Z,32.30
2019-04-29T11:27:12.112Z,32.40
2019-04-29T11:30:04.940Z,32.40
2019-04-29T11:33:11.011Z,32.40
2019-04-29T11:36:06.768Z,32.40
2019-04-29T11:39:02.182Z,32.50
2019-04-29T11:41:59.572Z,32.40
2019-04-29T11:44:57.285Z,32.20
2019-04-29T11:47:48.805Z,31.90
2019-04-29T11:50:55.526Z,31.90
2019-04-29T11:53:49.247Z,31.80
2019-04-29T11:56:42.596Z,31.80
2019-04-29T11:59:53.315Z,31.70
2019-04-29T12:02:54.532Z,31.60
2019-04-29T12:05:52.030Z,31.60
2019-04-29T12:08:48.264Z,31.70
2019-04-29T12:11:43.870Z,31.60
2019-04-29T12:14:55.563Z,31.60
2019-04-29T12:18:00.808Z,31.60
2019-04-29T12:21:10.177Z,31.50
2019-04-29T12:24:06.239Z,31.50
2019-04-29T12:27:03.053Z,31.40
2019-04-29T12:29:59.506Z,31.40
2019-04-29T12:33:05.477Z,31.40
2019-04-29T12:36:04.985Z,31.40
2019-04-29T12:39:19.780Z,31.40
2019-04-29T12:42:29.180Z,31.40
2019-04-29T12:45:31.658Z,31.30
2019-04-29T12:48:25.352Z,31.30
2019-04-29T12:51:20.025Z,31.30
2019-04-29T12:54:13.680Z,31.30
2019-04-29T12:57:08.001Z,31.40
2019-04-29T13:00:02.378Z,31.40
2019-04-29T13:03:16.980Z,31.40
2019-04-29T13:06:23.655Z,31.40
2019-04-29T13:09:24.721Z,31.40
2019-04-29T13:12:21.511Z,31.80
2019-04-29T13:15:26.524Z,31.90
2019-04-29T13:18:38.164Z,32.10
2019-04-29T13:21:33.224Z,32.20
2019-04-29T13:24:27.674Z,32.20
2019-04-29T13:27:25.461Z,32.10
2019-04-29T13:30:16.412Z,32.10
2019-04-29T13:33:16.417Z,32.10
2019-04-29T13:36:03.252Z,32.10
2019-04-29T13:38:56.159Z,32.00
2019-04-29T13:41:57.487Z,32.00
2019-04-29T13:45:04.538Z,32.00
2019-04-29T13:48:01.480Z,32.00
2019-04-29T13:51:02.714Z,32.00
2019-04-29T13:53:59.802Z,32.00
2019-04-29T13:56:56.183Z,32.00
2019-04-29T13:59:57.037Z,32.00
2019-04-29T14:03:00.255Z,32.00
2019-04-29T14:06:03.864Z,32.00
2019-04-29T14:08:50.150Z,32.00
2019-04-29T14:11:45.266Z,32.10
2019-04-29T14:14:39.758Z,32.00
2019-04-29T14:17:35.633Z,32.00
2019-04-29T14:20:30.636Z,32.00
2019-04-29T14:23:24.432Z,32.10
2019-04-29T14:26:17.347Z,32.10
2019-04-29T14:29:11.330Z,32.10
2019-04-29T14:32:04.123Z,32.10
2019-04-29T14:35:07.221Z,32.10
2019-04-29T14:38:04.611Z,32.10
2019-04-29T14:40:53.194Z,32.10
2019-04-29T14:44:05.504Z,32.10
2019-04-29T14:47:15.276Z,32.10
2019-04-29T14:50:10.735Z,32.10
2019-04-29T14:53:04.752Z,32.10
2019-04-29T14:55:57.839Z,32.10
2019-04-29T14:58:51.277Z,32.10
2019-04-29T15:02:00.749Z,32.10
2019-04-29T15:04:54.899Z,32.20
2019-04-29T15:07:47.789Z,32.10
2019-04-29T15:10:41.272Z,32.20
2019-04-29T15:13:33.739Z,32.20
2019-04-29T15:16:38.011Z,32.20
2019-04-29T15:19:49.358Z,32.20
2019-04-29T15:22:43.793Z,32.20
2019-04-29T15:25:38.709Z,32.20
2019-04-29T15:28:34.758Z,32.20
2019-04-29T15:31:28.430Z,32.10
2019-04-29T15:34:23.871Z,32.20
2019-04-29T15:37:18.625Z,32.20
2019-04-29T15:40:15.264Z,32.20
2019-04-29T15:43:08.233Z,32.20
2019-04-29T15:46:01.365Z,32.20
2019-04-29T15:48:54.463Z,32.20
2019-04-29T15:51:49.294Z,32.20
2019-04-29T15:54:45.934Z,32.20
2019-04-29T15:57:38.377Z,32.20
2019-04-29T16:00:37.454Z,32.20
2019-04-29T16:03:26.540Z,32.20
2019-04-29T16:06:40.203Z,32.20
2019-04-29T16:09:51.843Z,32.20
2019-04-29T16:12:50.901Z,32.20
2019-04-29T16:15:43.686Z,32.20
2019-04-29T16:18:39.228Z,32.20
2019-04-29T16:21:39.087Z,32.20
2019-04-29T16:24:37.140Z,32.20
2019-04-29T16:27:24.379Z,32.20
2019-04-29T16:30:19.205Z,32.20
2019-04-29T16:33:14.051Z,32.20
2019-04-29T16:36:08.274Z,32.20
2019-04-29T16:39:03.751Z,32.20
2019-04-29T16:42:15.909Z,32.20
2019-04-29T16:45:12.109Z,32.20
2019-04-29T16:48:05.371Z,32.20
2019-04-29T16:51:06.705Z,32.20
2019-04-29T16:53:57.647Z,32.20
2019-04-29T16:56:52.840Z,32.20
2019-04-29T16:59:47.455Z,32.20
2019-04-29T17:02:45.236Z,32.20
2019-04-29T17:05:41.630Z,32.20
2019-04-29T17:09:02.939Z,32.20
2019-04-29T17:11:50.410Z,32.20
2019-04-29T17:15:02.884Z,32.20
2019-04-29T17:17:39.681Z,32.20
2019-04-29T17:20:32.720Z,32.20
2019-04-29T17:23:25.669Z,32.20
2019-04-29T17:26:17.886Z,32.20
2019-04-29T17:29:39.209Z,32.10
2019-04-29T17:32:48.511Z,31.60
2019-04-29T17:35:47.660Z,30.80
2019-04-29T17:38:39.079Z,30.20
2019-04-29T17:41:31.817Z,29.80
2019-04-29T17:44:37.497Z,29.60
2019-04-29T17:47:47.326Z,29.50
2019-04-29T17:50:59.339Z,29.30
2019-04-29T17:53:59.540Z,29.10
2019-04-29T17:57:22.845Z,29.00
2019-04-29T18:00:15.823Z,28.90
2019-04-29T18:03:27.519Z,28.70
2019-04-29T18:06:41.189Z,28.60
2019-04-29T18:09:50.900Z,28.50
2019-04-29T18:12:45.558Z,28.50
2019-04-29T18:15:57.755Z,28.40
2019-04-29T18:18:48.964Z,28.30
2019-04-29T18:22:03.022Z,28.30
2019-04-29T18:25:09.155Z,28.20
2019-04-29T18:28:02.692Z,28.10
2019-04-29T18:30:58.107Z,28.10
2019-04-29T18:33:51.446Z,28.00
2019-04-29T18:36:45.830Z,28.00
2019-04-29T18:39:39.400Z,27.90
2019-04-29T18:42:32.913Z,27.90
2019-04-29T18:45:29.658Z,27.80
2019-04-29T18:48:21.630Z,27.80
2019-04-29T18:51:20.913Z,27.80
2019-04-29T18:54:16.482Z,27.70
2019-04-29T18:57:12.979Z,27.70
2019-04-29T19:00:12.751Z,27.60
2019-04-29T19:03:06.604Z,27.60
2019-04-29T19:06:03.200Z,27.50
2019-04-29T19:09:01.678Z,27.50
2019-04-29T19:11:53.022Z,27.50
2019-04-29T19:14:47.665Z,27.40
2019-04-29T19:17:40.080Z,27.40
2019-04-29T19:20:33.320Z,27.40
2019-04-29T19:23:29.466Z,27.40
2019-04-29T19:26:22.360Z,27.40
2019-04-29T19:29:15.973Z,27.30
2019-04-29T19:32:09.302Z,27.30
2019-04-29T19:35:02.505Z,27.20
2019-04-29T19:37:55.754Z,27.20
2019-04-29T19:40:48.891Z,27.20
2019-04-29T19:43:41.134Z,27.10
2019-04-29T19:46:38.365Z,27.10
2019-04-29T19:49:26.327Z,27.10
2019-04-29T19:52:28.020Z,27.00
2019-04-29T19:55:11.824Z,27.00
2019-04-29T19:58:07.546Z,27.00
2019-04-29T20:01:11.813Z,27.00
2019-04-29T20:04:25.924Z,27.00
2019-04-29T20:07:21.137Z,27.00
2019-04-29T20:10:16.423Z,27.00
2019-04-29T20:13:11.125Z,27.00
2019-04-29T20:16:40.551Z,26.90
2019-04-29T20:19:30.381Z,26.90
2019-04-29T20:22:24.155Z,26.80
2019-04-29T20:25:17.185Z,26.80
2019-04-29T20:28:16.960Z,26.80
2019-04-29T20:31:16.245Z,26.80
2019-04-29T20:33:58.657Z,26.80
2019-04-29T20:36:49.828Z,26.70
2019-04-29T20:39:42.457Z,26.70
2019-04-29T20:42:35.830Z,26.70
2019-04-29T20:45:29.462Z,26.70
2019-04-29T20:48:22.851Z,26.60
2019-04-29T20:51:16.711Z,26.60
2019-04-29T20:54:19.125Z,26.60
2019-04-29T20:57:17.723Z,26.60
2019-04-29T21:00:03.214Z,26.50
2019-04-29T21:02:56.698Z,26.50
2019-04-29T21:05:50.334Z,26.60
2019-04-29T21:08:44.971Z,26.50
2019-04-29T21:11:45.497Z,26.50
2019-04-29T21:14:42.579Z,26.50
2019-04-29T21:17:40.320Z,26.50
2019-04-29T21:20:29.562Z,26.50
2019-04-29T21:23:23.795Z,26.50
2019-04-29T21:26:16.599Z,26.50
2019-04-29T21:29:10.761Z,26.50
2019-04-29T21:32:05.700Z,26.40
2019-04-29T21:35:10.186Z,26.50
2019-04-29T21:38:23.415Z,26.40
2019-04-29T21:41:25.506Z,26.40
2019-04-29T21:44:23.604Z,26.40
2019-04-29T21:47:20.164Z,26.40
2019-04-29T21:50:15.044Z,26.30
2019-04-29T21:53:07.537Z,26.30
2019-04-29T21:56:03.666Z,26.30
2019-04-29T21:58:53.701Z,26.20
2019-04-29T22:01:47.194Z,26.20
2019-04-29T22:04:39.581Z,26.20
2019-04-29T22:07:32.179Z,26.10
2019-04-29T22:10:28.864Z,26.10
2019-04-29T22:13:18.269Z,26.20
2019-04-29T22:16:11.559Z,26.10
2019-04-29T22:19:06.232Z,26.10
2019-04-29T22:22:01.509Z,26.10
2019-04-29T22:24:57.518Z,26.10
2019-04-29T22:27:49.688Z,26.00
2019-04-29T22:30:49.642Z,26.00
2019-04-29T22:33:42.738Z,26.10
2019-04-29T22:36:36.018Z,26.10
2019-04-29T22:39:31.766Z,26.00
2019-04-29T22:42:37.240Z,26.00
2019-04-29T22:45:34.013Z,26.00
2019-04-29T22:48:30.720Z,26.00
2019-04-29T22:51:23.027Z,26.00
2019-04-29T22:54:17.647Z,26.00
2019-04-29T22:57:09.269Z,25.90
2019-04-29T23:00:02.333Z,25.90
2019-04-29T23:02:57.749Z,25.90
2019-04-29T23:05:49.002Z,26.00
2019-04-29T23:08:41.154Z,25.90
2019-04-29T23:11:34.761Z,25.90
2019-04-29T23:14:26.292Z,25.90
2019-04-29T23:17:18.877Z,25.90
2019-04-29T23:20:30.047Z,25.90
2019-04-29T23:23:33.361Z,25.90
2019-04-29T23:26:20.244Z,25.90
2019-04-29T23:29:13.315Z,25.80
2019-04-29T23:32:09.158Z,25.80
2019-04-29T23:35:08.245Z,25.80
2019-04-29T23:38:04.365Z,25.80
2019-04-29T23:40:56.418Z,25.80
2019-04-29T23:43:49.217Z,25.80
2019-04-29T23:46:41.516Z,25.70
2019-04-29T23:49:42.324Z,25.70
2019-04-29T23:52:29.761Z,25.70
2019-04-29T23:55:27.370Z,25.70
2019-04-29T23:58:47.092Z,25.70
